sensor_id;sensor_type;location;lat;lon;timestamp;pressure;altitude;pressure_sealevel;temperature;humidity
23679;BME280;12016;51.668;6.874;2023-02-15T00:05:15;102428.66;;;2.93;61.46
23679;BME280;12016;51.668;6.874;2023-02-15T00:11:18;102687.41;;;4.85;61.53
23679;BME280;12016;51.668;6.874;2023-02-15T00:17:41;102545.91;;;4.14;62.08
23679;BME280;12016;51.668;6.874;2023-02-15T00:23:43;102663.53;;;4.90;62.08
23679;BME280;12016;51.668;6.874;2023-02-15T00:29:46;102604.97;;;4.47;61.90
23679;BME280;12016;51.668;6.874;2023-02-15T00:35:56;102613.41;;;4.44;62.49
23679;BME280;12016;51.668;6.874;2023-02-15T00:41:58;102545.63;;;4.04;62.15
23679;BME280;12016;51.668;6.874;2023-02-15T00:47:59;102642.53;;;4.64;62.47
23679;BME280;12016;51.668;6.874;2023-02-15T00:54:01;102656.97;;;4.56;62.84
23679;BME280;12016;51.668;6.874;2023-02-15T01:00:04;102262.25;;;1.67;62.65
23679;BME280;12016;51.668;6.874;2023-02-15T01:06:06;102668.94;;;4.36;62.79
23679;BME280;12016;51.668;6.874;2023-02-15T01:12:07;102148.38;;;1.28;62.72
23679;BME280;12016;51.668;6.874;2023-02-15T01:18:11;102628.56;;;4.32;62.48
23679;BME280;12016;51.668;6.874;2023-02-15T01:24:13;102637.09;;;4.22;62.78
23679;BME280;12016;51.668;6.874;2023-02-15T01:30:15;102638.94;;;4.22;62.94
23679;BME280;12016;51.668;6.874;2023-02-15T01:36:17;102417.00;;;2.44;63.12
23679;BME280;12016;51.668;6.874;2023-02-15T01:42:24;102642.19;;;4.06;63.20
23679;BME280;12016;51.668;6.874;2023-02-15T01:48:26;102420.63;;;2.49;62.72
23679;BME280;12016;51.668;6.874;2023-02-15T01:54:32;102614.50;;;4.07;62.35
23679;BME280;12016;51.668;6.874;2023-02-15T02:00:38;102391.13;;;2.58;63.03
23679;BME280;12016;51.668;6.874;2023-02-15T02:06:41;102605.72;;;3.88;63.62
23679;BME280;12016;51.668;6.874;2023-02-15T02:12:45;102069.56;;;0.41;63.00
23679;BME280;12016;51.668;6.874;2023-02-15T02:37:48;102569.63;;;3.49;63.21
23679;BME280;12016;51.668;6.874;2023-02-15T02:50:28;102558.47;;;3.58;64.00
23679;BME280;12016;51.668;6.874;2023-02-15T02:56:36;102545.78;;;3.54;63.72
23679;BME280;12016;51.668;6.874;2023-02-15T03:02:44;102435.28;;;2.83;63.79
23679;BME280;12016;51.668;6.874;2023-02-15T03:08:58;101999.59;;;0.17;63.06
23679;BME280;12016;51.668;6.874;2023-02-15T03:15:19;102531.75;;;3.47;64.29
23679;BME280;12016;51.668;6.874;2023-02-15T03:21:27;102531.94;;;3.45;64.23
23679;BME280;12016;51.668;6.874;2023-02-15T03:27:38;102445.25;;;2.88;64.05
23679;BME280;12016;51.668;6.874;2023-02-15T03:34:00;102287.41;;;1.90;63.65
23679;BME280;12016;51.668;6.874;2023-02-15T03:46:53;102531.09;;;3.27;64.84
23679;BME280;12016;51.668;6.874;2023-02-15T03:52:59;102386.47;;;2.28;63.67
23679;BME280;12016;51.668;6.874;2023-02-15T03:59:03;102530.97;;;3.21;63.84
23679;BME280;12016;51.668;6.874;2023-02-15T04:05:24;102525.88;;;2.95;64.65
23679;BME280;12016;51.668;6.874;2023-02-15T04:11:26;102350.69;;;1.99;63.62
23679;BME280;12016;51.668;6.874;2023-02-15T04:17:28;102531.91;;;3.09;64.41
23679;BME280;12016;51.668;6.874;2023-02-15T04:23:31;102104.22;;;0.39;64.41
23679;BME280;12016;51.668;6.874;2023-02-15T04:29:51;102225.03;;;1.11;64.11
23679;BME280;12016;51.668;6.874;2023-02-15T04:35:53;102519.94;;;2.93;63.58
23679;BME280;12016;51.668;6.874;2023-02-15T04:41:54;102245.41;;;1.17;63.92
23679;BME280;12016;51.668;6.874;2023-02-15T04:47:56;102524.28;;;2.87;65.02
23679;BME280;12016;51.668;6.874;2023-02-15T04:53:58;102529.59;;;2.87;64.00
23679;BME280;12016;51.668;6.874;2023-02-15T05:00:00;102252.72;;;1.22;65.36
23679;BME280;12016;51.668;6.874;2023-02-15T05:06:03;102504.69;;;2.82;65.30
23679;BME280;12016;51.668;6.874;2023-02-15T05:12:05;102503.50;;;2.78;64.46
23679;BME280;12016;51.668;6.874;2023-02-15T05:18:06;102257.84;;;1.23;64.35
23679;BME280;12016;51.668;6.874;2023-02-15T05:24:09;102165.31;;;0.64;64.79
23679;BME280;12016;51.668;6.874;2023-02-15T05:30:31;102484.03;;;2.53;65.41
23679;BME280;12016;51.668;6.874;2023-02-15T05:36:33;102395.66;;;2.01;64.78
23679;BME280;12016;51.668;6.874;2023-02-15T05:42:35;102344.69;;;1.48;65.87
23679;BME280;12016;51.668;6.874;2023-02-15T05:48:37;102367.00;;;1.78;65.02
23679;BME280;12016;51.668;6.874;2023-02-15T05:54:39;101789.88;;;-1.90;64.71
23679;BME280;12016;51.668;6.874;2023-02-15T06:00:41;101819.75;;;-1.83;64.55
23679;BME280;12016;51.668;6.874;2023-02-15T06:06:43;102462.63;;;2.09;65.16
23679;BME280;12016;51.668;6.874;2023-02-15T06:12:45;102063.56;;;-0.51;65.24
23679;BME280;12016;51.668;6.874;2023-02-15T06:18:47;102484.56;;;2.36;64.85
23679;BME280;12016;51.668;6.874;2023-02-15T06:24:50;102483.75;;;2.36;64.55
23679;BME280;12016;51.668;6.874;2023-02-15T06:30:52;102397.63;;;1.81;65.46
23679;BME280;12016;51.668;6.874;2023-02-15T06:36:54;102493.41;;;2.30;65.25
23679;BME280;12016;51.668;6.874;2023-02-15T06:42:56;102297.91;;;1.08;65.74
23679;BME280;12016;51.668;6.874;2023-02-15T06:48:57;102328.06;;;1.21;65.38
23679;BME280;12016;51.668;6.874;2023-02-15T06:54:59;102503.44;;;2.28;64.67
23679;BME280;12016;51.668;6.874;2023-02-15T07:01:02;102519.19;;;2.23;64.87
23679;BME280;12016;51.668;6.874;2023-02-15T07:07:08;102226.50;;;0.62;65.88
23679;BME280;12016;51.668;6.874;2023-02-15T07:13:11;102322.16;;;1.19;65.01
23679;BME280;12016;51.668;6.874;2023-02-15T07:19:12;102367.00;;;1.40;65.52
23679;BME280;12016;51.668;6.874;2023-02-15T07:25:15;102443.53;;;1.94;65.79
23679;BME280;12016;51.668;6.874;2023-02-15T07:31:18;102466.41;;;2.33;65.99
23679;BME280;12016;51.668;6.874;2023-02-15T07:37:19;101758.81;;;-2.01;65.14
23679;BME280;12016;51.668;6.874;2023-02-15T07:43:21;102452.19;;;2.46;65.79
23679;BME280;12016;51.668;6.874;2023-02-15T07:49:23;102361.53;;;1.66;65.73
23679;BME280;12016;51.668;6.874;2023-02-15T07:55:25;102330.94;;;1.89;65.38
23679;BME280;12016;51.668;6.874;2023-02-15T08:01:35;102440.53;;;2.72;66.77
23679;BME280;12016;51.668;6.874;2023-02-15T08:07:38;102227.13;;;1.65;64.92
23679;BME280;12016;51.668;6.874;2023-02-15T08:13:42;102244.19;;;1.76;65.83
23679;BME280;12016;51.668;6.874;2023-02-15T08:19:55;102394.91;;;2.86;66.24
23679;BME280;12016;51.668;6.874;2023-02-15T08:25:59;102251.31;;;2.25;66.90
23679;BME280;12016;51.668;6.874;2023-02-15T08:32:04;102255.47;;;2.39;66.71
23679;BME280;12016;51.668;6.874;2023-02-15T08:38:07;102245.88;;;2.57;66.92
23679;BME280;12016;51.668;6.874;2023-02-15T08:44:09;102405.66;;;3.83;67.43
23679;BME280;12016;51.668;6.874;2023-02-15T08:50:12;101805.88;;;0.31;66.72
23679;BME280;12016;51.668;6.874;2023-02-15T08:56:14;102401.59;;;4.22;67.79
23679;BME280;12016;51.668;6.874;2023-02-15T09:02:16;102164.03;;;3.00;67.85
23679;BME280;12016;51.668;6.874;2023-02-15T09:08:18;102190.19;;;3.45;67.89
23679;BME280;12016;51.668;6.874;2023-02-15T09:14:21;102199.25;;;3.79;67.95
23679;BME280;12016;51.668;6.874;2023-02-15T09:20:25;102297.28;;;4.70;68.72
23679;BME280;12016;51.668;6.874;2023-02-15T09:26:29;102382.31;;;5.53;68.36
23679;BME280;12016;51.668;6.874;2023-02-15T09:32:31;102128.38;;;4.29;67.94
23679;BME280;12016;51.668;6.874;2023-02-15T09:38:33;101724.88;;;1.85;68.09
23679;BME280;12016;51.668;6.874;2023-02-15T09:44:57;102385.22;;;6.42;68.29
23679;BME280;12016;51.668;6.874;2023-02-15T10:05:36;102381.47;;;7.64;65.56
23679;BME280;12016;51.668;6.874;2023-02-15T10:30:11;102184.94;;;16.74;42.79
23679;BME280;12016;51.668;6.874;2023-02-15T10:36:30;102346.69;;;20.20;34.81
23679;BME280;12016;51.668;6.874;2023-02-15T10:43:04;102305.94;;;19.61;34.04
23679;BME280;12016;51.668;6.874;2023-02-15T10:55:27;102302.00;;;23.46;30.51
23679;BME280;12016;51.668;6.874;2023-02-15T11:07:51;102333.75;;;21.83;32.41
23679;BME280;12016;51.668;6.874;2023-02-15T11:13:58;102310.50;;;23.99;29.92
23679;BME280;12016;51.668;6.874;2023-02-15T11:20:36;102315.84;;;23.69;26.58
23679;BME280;12016;51.668;6.874;2023-02-15T11:26:50;102273.53;;;22.65;27.08
23679;BME280;12016;51.668;6.874;2023-02-15T11:32:59;102329.63;;;23.14;27.25
23679;BME280;12016;51.668;6.874;2023-02-15T11:39:10;102303.16;;;23.64;27.47
23679;BME280;12016;51.668;6.874;2023-02-15T11:45:19;102303.75;;;23.35;27.37
23679;BME280;12016;51.668;6.874;2023-02-15T11:51:23;102115.69;;;22.78;27.23
23679;BME280;12016;51.668;6.874;2023-02-15T11:57:27;102286.47;;;24.68;24.79
23679;BME280;12016;51.668;6.874;2023-02-15T12:03:48;102008.69;;;24.43;24.31
23679;BME280;12016;51.668;6.874;2023-02-15T12:09:57;102089.78;;;25.57;23.29
23679;BME280;12016;51.668;6.874;2023-02-15T12:16:06;102003.06;;;24.03;24.49
23679;BME280;12016;51.668;6.874;2023-02-15T12:22:25;102200.97;;;26.63;21.82
23679;BME280;12016;51.668;6.874;2023-02-15T12:28:40;102203.34;;;26.58;23.04
23679;BME280;12016;51.668;6.874;2023-02-15T12:34:43;102092.53;;;25.13;23.75
23679;BME280;12016;51.668;6.874;2023-02-15T12:41:02;102235.91;;;25.46;23.22
23679;BME280;12016;51.668;6.874;2023-02-15T12:53:33;102215.31;;;26.21;23.52
23679;BME280;12016;51.668;6.874;2023-02-15T12:59:36;102113.88;;;25.19;23.61
23679;BME280;12016;51.668;6.874;2023-02-15T13:05:40;102218.19;;;25.88;23.18
23679;BME280;12016;51.668;6.874;2023-02-15T13:11:46;102137.88;;;26.04;22.66
23679;BME280;12016;51.668;6.874;2023-02-15T13:17:48;102062.13;;;24.35;23.83
23679;BME280;12016;51.668;6.874;2023-02-15T13:24:00;102200.22;;;23.23;25.54
23679;BME280;12016;51.668;6.874;2023-02-15T13:30:12;102180.06;;;22.10;26.45
23679;BME280;12016;51.668;6.874;2023-02-15T13:36:38;102173.19;;;22.52;27.19
23679;BME280;12016;51.668;6.874;2023-02-15T13:43:00;102165.13;;;21.77;27.51
23679;BME280;12016;51.668;6.874;2023-02-15T14:07:55;102148.13;;;19.71;29.59
23679;BME280;12016;51.668;6.874;2023-02-15T14:14:17;101969.47;;;18.81;29.53
23679;BME280;12016;51.668;6.874;2023-02-15T14:20:47;102143.53;;;19.87;29.43
23679;BME280;12016;51.668;6.874;2023-02-15T14:27:08;101785.16;;;16.98;30.37
23679;BME280;12016;51.668;6.874;2023-02-15T14:39:41;102176.44;;;18.00;33.03
23679;BME280;12016;51.668;6.874;2023-02-15T15:05:56;102040.88;;;16.77;35.31
23679;BME280;12016;51.668;6.874;2023-02-15T15:49:36;101869.28;;;14.31;37.95
23679;BME280;12016;51.668;6.874;2023-02-15T15:55:39;101875.78;;;13.99;38.29
23679;BME280;12016;51.668;6.874;2023-02-15T16:01:43;102129.38;;;15.30;38.78
23679;BME280;12016;51.668;6.874;2023-02-15T16:07:45;101880.06;;;13.78;38.88
23679;BME280;12016;51.668;6.874;2023-02-15T16:13:47;102114.59;;;15.14;39.56
23679;BME280;12016;51.668;6.874;2023-02-15T16:19:49;101810.84;;;13.00;40.22
23679;BME280;12016;51.668;6.874;2023-02-15T16:25:54;102113.69;;;14.83;40.96
23679;BME280;12016;51.668;6.874;2023-02-15T16:32:01;101976.88;;;13.72;41.46
23679;BME280;12016;51.668;6.874;2023-02-15T16:38:03;102137.91;;;14.16;41.68
23679;BME280;12016;51.668;6.874;2023-02-15T16:44:17;102123.56;;;14.15;41.71
23679;BME280;12016;51.668;6.874;2023-02-15T16:50:23;102122.88;;;13.96;43.07
23679;BME280;12016;51.668;6.874;2023-02-15T16:56:28;102130.50;;;13.67;43.61
23679;BME280;12016;51.668;6.874;2023-02-15T17:02:33;102130.06;;;13.46;44.14
23679;BME280;12016;51.668;6.874;2023-02-15T17:09:13;102130.13;;;13.08;45.56
23679;BME280;12016;51.668;6.874;2023-02-15T17:15:37;101717.56;;;9.56;46.49
23679;BME280;12016;51.668;6.874;2023-02-15T17:21:49;102131.69;;;12.58;47.50
23679;BME280;12016;51.668;6.874;2023-02-15T17:27:55;102136.25;;;12.39;47.51
23679;BME280;12016;51.668;6.874;2023-02-15T17:33:58;102013.31;;;11.32;47.46
23679;BME280;12016;51.668;6.874;2023-02-15T17:40:09;101914.59;;;10.55;48.48
23679;BME280;12016;51.668;6.874;2023-02-15T17:46:16;102155.72;;;11.64;48.54
23679;BME280;12016;51.668;6.874;2023-02-15T17:52:21;102141.75;;;11.57;48.69
23679;BME280;12016;51.668;6.874;2023-02-15T17:58:23;102157.97;;;11.23;49.78
23679;BME280;12016;51.668;6.874;2023-02-15T18:04:25;101647.81;;;7.63;50.52
23679;BME280;12016;51.668;6.874;2023-02-15T18:10:46;101737.13;;;7.78;51.39
23679;BME280;12016;51.668;6.874;2023-02-15T18:17:10;101656.13;;;7.56;51.80
23679;BME280;12016;51.668;6.874;2023-02-15T18:23:13;102104.38;;;10.38;52.16
23679;BME280;12016;51.668;6.874;2023-02-15T18:29:15;102211.47;;;10.57;53.09
23679;BME280;12016;51.668;6.874;2023-02-15T18:35:18;101734.41;;;7.99;52.53
23679;BME280;12016;51.668;6.874;2023-02-15T18:41:21;102157.00;;;10.65;52.74
23679;BME280;12016;51.668;6.874;2023-02-15T18:47:24;101698.47;;;7.54;52.33
23679;BME280;12016;51.668;6.874;2023-02-15T18:53:26;102218.34;;;10.88;52.30
23679;BME280;12016;51.668;6.874;2023-02-15T18:59:27;101990.13;;;9.95;51.91
23679;BME280;12016;51.668;6.874;2023-02-15T19:05:32;102061.28;;;10.33;51.87
23679;BME280;12016;51.668;6.874;2023-02-15T19:11:34;102161.16;;;10.91;52.00
23679;BME280;12016;51.668;6.874;2023-02-15T19:17:36;101677.59;;;7.51;51.91
23679;BME280;12016;51.668;6.874;2023-02-15T19:23:38;102170.25;;;10.61;52.75
23679;BME280;12016;51.668;6.874;2023-02-15T19:29:40;102161.91;;;10.58;53.09
23679;BME280;12016;51.668;6.874;2023-02-15T19:35:44;102177.84;;;10.49;53.09
23679;BME280;12016;51.668;6.874;2023-02-15T19:41:47;102004.63;;;9.30;53.11
23679;BME280;12016;51.668;6.874;2023-02-15T19:47:49;102159.84;;;10.34;53.27
23679;BME280;12016;51.668;6.874;2023-02-15T19:53:53;102048.94;;;9.48;53.70
23679;BME280;12016;51.668;6.874;2023-02-15T19:59:55;102092.75;;;9.68;53.98
23679;BME280;12016;51.668;6.874;2023-02-15T20:06:01;102168.53;;;10.11;54.42
23679;BME280;12016;51.668;6.874;2023-02-15T20:12:15;102093.31;;;9.55;54.86
23679;BME280;12016;51.668;6.874;2023-02-15T20:18:19;102125.06;;;9.53;55.09
23679;BME280;12016;51.668;6.874;2023-02-15T20:24:27;102116.75;;;9.35;55.27
23679;BME280;12016;51.668;6.874;2023-02-15T20:30:31;102252.00;;;9.81;54.94
23679;BME280;12016;51.668;6.874;2023-02-15T20:36:33;102078.84;;;8.80;55.98
23679;BME280;12016;51.668;6.874;2023-02-15T20:42:41;101894.75;;;7.66;56.04
23679;BME280;12016;51.668;6.874;2023-02-15T20:48:42;101782.56;;;6.45;55.70
23679;BME280;12016;51.668;6.874;2023-02-15T20:54:44;102200.38;;;9.38;56.17
23679;BME280;12016;51.668;6.874;2023-02-15T21:00:46;101668.56;;;5.92;56.45
23679;BME280;12016;51.668;6.874;2023-02-15T21:06:48;101835.19;;;6.76;56.92
23679;BME280;12016;51.668;6.874;2023-02-15T21:12:51;101926.84;;;7.41;56.52
23679;BME280;12016;51.668;6.874;2023-02-15T21:18:53;102212.19;;;9.07;57.10
23679;BME280;12016;51.668;6.874;2023-02-15T21:24:55;101960.03;;;7.30;57.08
23679;BME280;12016;51.668;6.874;2023-02-15T21:30:57;102197.63;;;8.92;57.54
23679;BME280;12016;51.668;6.874;2023-02-15T21:36:59;101773.66;;;5.97;58.54
23679;BME280;12016;51.668;6.874;2023-02-15T21:43:01;102013.88;;;6.86;58.09
23679;BME280;12016;51.668;6.874;2023-02-15T21:49:21;102145.03;;;8.29;57.92
23679;BME280;12016;51.668;6.874;2023-02-15T21:55:23;102181.34;;;8.42;58.50
23679;BME280;12016;51.668;6.874;2023-02-15T22:01:27;102187.25;;;8.39;58.71
23679;BME280;12016;51.668;6.874;2023-02-15T22:07:28;102181.22;;;8.21;59.07
23679;BME280;12016;51.668;6.874;2023-02-15T22:13:32;102193.00;;;8.15;59.76
23679;BME280;12016;51.668;6.874;2023-02-15T22:19:34;102187.63;;;8.15;58.71
23679;BME280;12016;51.668;6.874;2023-02-15T22:25:37;102188.88;;;7.98;59.86
23679;BME280;12016;51.668;6.874;2023-02-15T22:31:42;102186.59;;;7.74;61.75
23679;BME280;12016;51.668;6.874;2023-02-15T22:37:44;101975.44;;;6.38;61.62
23679;BME280;12016;51.668;6.874;2023-02-15T22:43:47;101563.53;;;3.83;61.85
23679;BME280;12016;51.668;6.874;2023-02-15T22:49:49;101711.19;;;4.64;62.69
23679;BME280;12016;51.668;6.874;2023-02-15T22:55:52;101956.88;;;6.00;64.14
23679;BME280;12016;51.668;6.874;2023-02-15T23:01:55;102192.75;;;7.75;63.15
23679;BME280;12016;51.668;6.874;2023-02-15T23:07:58;102053.25;;;6.91;62.21
23679;BME280;12016;51.668;6.874;2023-02-15T23:13:59;102118.03;;;7.14;62.90
23679;BME280;12016;51.668;6.874;2023-02-15T23:20:03;102021.22;;;7.01;61.81
23679;BME280;12016;51.668;6.874;2023-02-15T23:26:21;101816.19;;;5.72;62.09
23679;BME280;12016;51.668;6.874;2023-02-15T23:32:23;102043.47;;;7.06;62.81
23679;BME280;12016;51.668;6.874;2023-02-15T23:38:27;101677.63;;;4.46;62.13
23679;BME280;12016;51.668;6.874;2023-02-15T23:44:30;101871.94;;;5.85;63.01
23679;BME280;12016;51.668;6.874;2023-02-15T23:50:34;102167.38;;;7.56;63.78
23679;BME280;12016;51.668;6.874;2023-02-15T23:56:37;102167.28;;;7.40;64.21
